createdAt,value
2019-04-16T00:01:47.372Z,21.9
2019-04-16T00:03:48.785Z,18.6
2019-04-16T00:05:50.204Z,19.6
2019-04-16T00:07:51.626Z,18.8
2019-04-16T00:09:52.986Z,22.4
2019-04-16T00:11:54.384Z,20.7
2019-04-16T00:13:55.808Z,19.8
2019-04-16T00:15:57.228Z,18.9
2019-04-16T00:17:58.595Z,21.7
2019-04-16T00:19:59.997Z,20.3
2019-04-16T00:22:01.614Z,20.8
2019-04-16T00:24:02.942Z,19.2
2019-04-16T00:26:04.343Z,21
2019-04-16T00:28:05.767Z,20.1
2019-04-16T00:30:07.194Z,22.9
2019-04-16T00:32:09.510Z,19.8
2019-04-16T00:34:13.586Z,20
2019-04-16T00:36:18.037Z,21.3
2019-04-16T00:38:22.625Z,20.8
2019-04-16T00:40:26.558Z,20
2019-04-16T00:42:28.730Z,21.9
2019-04-16T00:44:30.143Z,22.8
2019-04-16T00:46:31.506Z,20.1
2019-04-16T00:48:32.922Z,22.4
2019-04-16T00:50:34.259Z,21.5
2019-04-16T00:52:36.911Z,20.7
2019-04-16T00:54:39.208Z,21.5
2019-04-16T00:56:46.569Z,21.6
2019-04-16T00:58:49.308Z,22.1
2019-04-16T01:00:54.384Z,23.5
2019-04-16T01:02:55.807Z,20.5
2019-04-16T01:04:57.230Z,19
2019-04-16T01:06:58.564Z,19
2019-04-16T01:08:59.989Z,21.3
2019-04-16T01:11:01.316Z,19
2019-04-16T01:13:02.855Z,20.2
2019-04-16T01:15:04.261Z,24.2
2019-04-16T01:17:05.794Z,21.9
2019-04-16T01:19:09.960Z,20.9
2019-04-16T01:21:14.116Z,21.8
2019-04-16T01:23:17.761Z,23.3
2019-04-16T01:25:20.208Z,21.6
2019-04-16T01:27:28.502Z,23.8
2019-04-16T01:29:33.536Z,20.9
2019-04-16T01:31:36.247Z,23
2019-04-16T01:33:40.640Z,21.6
2019-04-16T01:35:41.967Z,22.4
2019-04-16T01:37:43.395Z,21.3
2019-04-16T01:39:47.333Z,23.7
2019-04-16T01:41:50.267Z,22.4
2019-04-16T01:43:57.079Z,23.4
2019-04-16T01:46:01.242Z,24
2019-04-16T01:48:07.129Z,23.9
2019-04-16T01:50:12.705Z,24.7
2019-04-16T01:52:18.644Z,22.2
2019-04-16T01:54:22.785Z,24.6
2019-04-16T01:56:27.665Z,23.6
2019-04-16T01:58:33.488Z,22.1
2019-04-16T02:00:36.426Z,21.7
2019-04-16T02:02:43.427Z,23.1
2019-04-16T02:04:51.596Z,22
2019-04-16T02:06:54.254Z,23.8
2019-04-16T02:09:01.514Z,22.5
2019-04-16T02:11:05.548Z,22.6
2019-04-16T02:13:14.487Z,23.2
2019-04-16T02:15:21.560Z,24.9
2019-04-16T02:17:26.647Z,22.1
2019-04-16T02:19:32.248Z,24
2019-04-16T02:21:34.868Z,27.6
2019-04-16T02:23:36.293Z,25.3
2019-04-16T02:25:37.706Z,24.3
2019-04-16T02:27:39.034Z,22.7
2019-04-16T02:29:40.380Z,25.7
2019-04-16T02:31:41.776Z,22.5
2019-04-16T02:33:43.200Z,24.5
2019-04-16T02:35:44.540Z,24.3
2019-04-16T02:37:45.936Z,23.5
2019-04-16T02:39:48.515Z,22.2
2019-04-16T02:41:56.743Z,23
2019-04-16T02:43:59.799Z,24.4
2019-04-16T02:46:01.222Z,25.2
2019-04-16T02:48:02.633Z,23.8
2019-04-16T02:50:04.253Z,18.2
2019-04-16T02:52:05.672Z,24.3
2019-04-16T02:54:07.359Z,23.6
2019-04-16T02:56:08.725Z,26.9
2019-04-16T02:58:10.140Z,25
2019-04-16T03:00:11.461Z,22.9
2019-04-16T03:02:12.891Z,21.5
2019-04-16T03:04:14.302Z,23.1
2019-04-16T03:06:15.720Z,22.8
2019-04-16T03:08:17.105Z,21.5
2019-04-16T03:10:18.471Z,23.2
2019-04-16T03:12:20.813Z,21.9
2019-04-16T03:14:23.006Z,22.2
2019-04-16T03:16:24.423Z,22.2
2019-04-16T03:18:25.771Z,22.8
2019-04-16T03:20:27.190Z,23.9
2019-04-16T03:22:30.514Z,24
2019-04-16T03:24:37.450Z,25.1
2019-04-16T03:26:44.123Z,22.4
2019-04-16T03:28:45.801Z,23.8
2019-04-16T03:30:47.147Z,25.7
2019-04-16T03:32:48.554Z,21.9
2019-04-16T03:34:50.456Z,25.6
2019-04-16T03:36:55.397Z,21.3
2019-04-16T03:38:56.813Z,22.1
2019-04-16T03:40:58.236Z,24.7
2019-04-16T03:43:01.294Z,24.8
2019-04-16T03:45:08.896Z,23.3
2019-04-16T03:47:11.626Z,24.7
2019-04-16T03:49:12.962Z,24.2
2019-04-16T03:51:14.382Z,23.3
2019-04-16T03:53:17.428Z,24.8
2019-04-16T03:55:24.905Z,24.2
2019-04-16T03:57:32.592Z,24.2
2019-04-16T03:59:35.186Z,27.2
2019-04-16T04:01:36.605Z,22.4
2019-04-16T04:03:37.973Z,25.7
2019-04-16T04:05:39.314Z,22.9
2019-04-16T04:07:43.773Z,25.3
2019-04-16T04:09:46.464Z,22.5
2019-04-16T04:11:47.877Z,23.3
2019-04-16T04:13:50.018Z,26
2019-04-16T04:15:54.826Z,21.7
2019-04-16T04:17:56.691Z,22.9
2019-04-16T04:19:58.103Z,26.9
2019-04-16T04:21:59.490Z,25.9
2019-04-16T04:24:01.020Z,23.8
2019-04-16T04:26:02.423Z,21.9
2019-04-16T04:28:03.844Z,24
2019-04-16T04:30:05.263Z,23.9
2019-04-16T04:32:06.762Z,22.7
2019-04-16T04:34:10.172Z,22.4
2019-04-16T04:36:18.687Z,22.8
2019-04-16T04:38:24.019Z,23.3
2019-04-16T04:40:25.451Z,25.3
2019-04-16T04:42:28.240Z,24.6
2019-04-16T04:44:30.366Z,22
2019-04-16T04:46:31.817Z,23
2019-04-16T04:48:33.194Z,24.4
2019-04-16T04:50:35.247Z,22.7
2019-04-16T04:52:37.431Z,25.1
2019-04-16T04:54:38.828Z,22.7
2019-04-16T04:56:40.199Z,22.9
2019-04-16T04:58:41.503Z,22.6
2019-04-16T05:00:42.928Z,24
2019-04-16T05:02:44.412Z,22.4
2019-04-16T05:04:45.795Z,20.6
2019-04-16T05:06:47.219Z,22
2019-04-16T05:08:48.638Z,21.8
2019-04-16T05:10:58.563Z,21.2
2019-04-16T05:13:04.085Z,22
2019-04-16T05:15:05.510Z,21.1
2019-04-16T05:17:07.517Z,22.7
2019-04-16T05:19:13.722Z,20.1
2019-04-16T05:21:18.644Z,21.3
2019-04-16T05:23:24.608Z,19.8
2019-04-16T05:25:27.524Z,19.5
2019-04-16T05:27:32.369Z,23.5
2019-04-16T05:29:33.852Z,22.6
2019-04-16T05:31:35.269Z,23.4
2019-04-16T05:33:37.325Z,20.2
2019-04-16T05:35:41.332Z,21
2019-04-16T05:37:43.773Z,23.2
2019-04-16T05:39:45.194Z,23.7
2019-04-16T05:41:46.612Z,23.6
2019-04-16T05:43:48.036Z,21.9
2019-04-16T05:45:49.449Z,21.8
2019-04-16T05:47:50.772Z,18.2
2019-04-16T05:49:54.327Z,23.1
2019-04-16T05:52:02.678Z,20.7
2019-04-16T05:54:05.410Z,22.3
2019-04-16T05:56:06.788Z,17.4
2019-04-16T05:58:08.171Z,20.7
2019-04-16T06:00:10.326Z,22.4
2019-04-16T06:02:14.598Z,22.2
2019-04-16T06:04:24.203Z,23.4
2019-04-16T06:06:28.511Z,18.3
2019-04-16T06:08:33.706Z,20.1
2019-04-16T06:10:35.129Z,22.3
2019-04-16T06:12:39.504Z,27.6
2019-04-16T06:14:42.079Z,27.9
2019-04-16T06:16:43.505Z,19.8
2019-04-16T06:18:44.932Z,21.6
2019-04-16T06:20:46.359Z,26.3
2019-04-16T06:22:47.694Z,26.4
2019-04-16T06:24:49.118Z,20.2
2019-04-16T06:26:50.541Z,30.4
2019-04-16T06:28:54.915Z,26.2
2019-04-16T06:31:04.930Z,28.6
2019-04-16T06:33:11.229Z,26.8
2019-04-16T06:35:12.653Z,29.2
2019-04-16T06:37:14.165Z,25.5
2019-04-16T06:39:15.422Z,27.5
2019-04-16T06:41:16.768Z,28.5
2019-04-16T06:43:18.142Z,25.9
2019-04-16T06:45:19.714Z,29
2019-04-16T06:47:21.144Z,26.9
2019-04-16T06:49:22.560Z,22
2019-04-16T06:51:24.087Z,20.9
2019-04-16T06:53:25.458Z,25.9
2019-04-16T06:55:26.887Z,30.5
2019-04-16T06:57:28.284Z,22.9
2019-04-16T06:59:30.809Z,24.5
2019-04-16T07:01:36.693Z,26.5
2019-04-16T07:03:42.773Z,27
2019-04-16T07:05:44.205Z,25.8
2019-04-16T07:07:46.715Z,28.4
2019-04-16T07:09:48.386Z,27.2
2019-04-16T07:11:54.471Z,29.2
2019-04-16T07:13:56.405Z,26.7
2019-04-16T07:15:57.941Z,25.2
2019-04-16T07:17:59.414Z,28.8
2019-04-16T07:20:04.260Z,25.7
2019-04-16T07:22:06.368Z,24.9
2019-04-16T07:24:08.059Z,25.6
2019-04-16T07:26:13.347Z,23.6
2019-04-16T07:28:16.522Z,24.6
2019-04-16T07:30:20.640Z,25
2019-04-16T07:34:21.115Z,24.7
2019-04-16T07:36:24.125Z,21.4
2019-04-16T07:38:29.108Z,21.6
2019-04-16T07:40:30.542Z,24.6
2019-04-16T07:42:31.967Z,24.1
2019-04-16T07:44:33.406Z,24.3
2019-04-16T07:46:34.740Z,22.7
2019-04-16T07:48:36.114Z,24.1
2019-04-16T07:50:37.546Z,20.7
2019-04-16T07:52:41.854Z,21.6
2019-04-16T07:54:44.034Z,25.2
2019-04-16T07:56:45.364Z,25.9
2019-04-16T07:58:46.711Z,23.2
2019-04-16T08:00:48.040Z,18.2
2019-04-16T08:02:50.647Z,21.5
2019-04-16T08:04:55.908Z,20.2
2019-04-16T08:06:57.335Z,23.9
2019-04-16T08:08:58.766Z,19.9
2019-04-16T08:11:00.191Z,24.7
2019-04-16T08:13:01.867Z,17.9
2019-04-16T08:15:13.211Z,20.5
2019-04-16T08:17:16.722Z,20.6
2019-04-16T08:19:18.156Z,20.1
2019-04-16T08:21:22.435Z,27.4
2019-04-16T08:23:24.352Z,18.6
2019-04-16T08:25:25.774Z,19
2019-04-16T08:27:27.169Z,22.5
2019-04-16T08:29:28.599Z,17.2
2019-04-16T08:31:29.982Z,21.5
2019-04-16T08:33:31.415Z,18.5
2019-04-16T08:35:32.745Z,20.3
2019-04-16T08:37:42.537Z,24
2019-04-16T08:39:50.637Z,20.1
2019-04-16T08:41:52.968Z,19.4
2019-04-16T08:43:54.513Z,19.4
2019-04-16T08:45:55.952Z,22.3
2019-04-16T08:47:57.383Z,18.6
2019-04-16T08:49:58.818Z,19.1
2019-04-16T08:52:00.390Z,19.9
2019-04-16T08:54:01.854Z,19
2019-04-16T08:56:03.192Z,21
2019-04-16T08:58:06.296Z,23.1
2019-04-16T09:00:14.054Z,21.9
2019-04-16T09:02:16.891Z,24.1
2019-04-16T09:04:18.489Z,24.4
2019-04-16T09:06:19.872Z,21.7
2019-04-16T09:08:22.034Z,20.4
2019-04-16T09:10:24.280Z,20.9
2019-04-16T09:12:31.564Z,21.3
2019-04-16T09:14:32.958Z,25.9
2019-04-16T09:16:34.394Z,24.1
2019-04-16T09:18:35.678Z,22.8
2019-04-16T09:20:37.722Z,23.1
2019-04-16T09:22:48.597Z,21.4
2019-04-16T09:24:54.133Z,20.1
2019-04-16T09:26:55.766Z,23.9
2019-04-16T09:29:00.527Z,20.4
2019-04-16T09:31:10.817Z,22.8
2019-04-16T09:33:12.088Z,20.8
2019-04-16T09:35:18.283Z,24.4
2019-04-16T09:37:21.767Z,20.9
2019-04-16T09:39:23.076Z,23.4
2019-04-16T09:41:24.511Z,21.2
2019-04-16T09:43:25.953Z,23.3
2019-04-16T09:45:27.394Z,19.5
2019-04-16T09:47:32.403Z,26
2019-04-16T09:49:37.487Z,22
2019-04-16T09:51:39.850Z,22.8
2019-04-16T09:53:41.263Z,22.1
2019-04-16T09:55:42.702Z,21.6
2019-04-16T09:57:44.140Z,22.9
2019-04-16T09:59:47.626Z,21.2
2019-04-16T10:01:49.815Z,24.4
2019-04-16T10:03:53.630Z,21.5
2019-04-16T10:05:55.290Z,22.5
2019-04-16T10:07:57.014Z,23.5
2019-04-16T10:09:58.571Z,25.4
2019-04-16T10:12:00.021Z,25.4
2019-04-16T10:14:01.452Z,24.4
2019-04-16T10:16:02.908Z,24.5
2019-04-16T10:18:04.257Z,18.1
2019-04-16T10:20:05.673Z,24.3
2019-04-16T10:22:07.095Z,23.3
2019-04-16T10:24:08.523Z,23.1
2019-04-16T10:26:09.952Z,27.8
2019-04-16T10:28:11.399Z,25.2
2019-04-16T10:30:12.838Z,22.4
2019-04-16T10:32:17.212Z,23.2
2019-04-16T10:34:19.989Z,23.8
2019-04-16T10:36:21.357Z,25.4
2019-04-16T10:38:22.811Z,26.4
2019-04-16T10:40:24.411Z,21.4
2019-04-16T10:42:25.913Z,25.9
2019-04-16T10:44:27.334Z,24.9
2019-04-16T10:46:28.775Z,19.5
2019-04-16T10:48:30.213Z,11.8
2019-04-16T10:50:31.603Z,21.3
2019-04-16T10:52:33.044Z,23.5
2019-04-16T10:54:37.146Z,21.6
2019-04-16T10:56:39.647Z,21.7
2019-04-16T10:58:41.071Z,24.8
2019-04-16T11:00:42.505Z,24.8
2019-04-16T11:02:43.936Z,22
2019-04-16T11:04:45.407Z,15.4
2019-04-16T11:06:46.845Z,24.2
2019-04-16T11:08:48.264Z,22.7
2019-04-16T11:10:49.617Z,18.7
2019-04-16T11:12:51.085Z,25.6
2019-04-16T11:14:52.537Z,26.7
2019-04-16T11:16:53.917Z,22.9
2019-04-16T11:18:55.430Z,25.6
2019-04-16T11:20:56.891Z,21.6
2019-04-16T11:22:58.341Z,22.8
2019-04-16T11:24:59.816Z,23.7
2019-04-16T11:27:01.191Z,21.9
2019-04-16T11:29:02.850Z,20.9
2019-04-16T11:31:04.262Z,19.9
2019-04-16T11:33:05.733Z,21.2
2019-04-16T11:35:07.179Z,20.6
2019-04-16T11:37:09.698Z,18.8
2019-04-16T11:39:11.270Z,17.6
2019-04-16T11:41:12.624Z,16.8
2019-04-16T11:43:14.039Z,18
2019-04-16T11:45:15.485Z,17.7
2019-04-16T11:47:16.929Z,16.9
2019-04-16T11:49:18.421Z,15.3
2019-04-16T11:51:19.760Z,15.9
2019-04-16T11:53:21.219Z,16.7
2019-04-16T11:55:22.659Z,19.8
2019-04-16T11:57:24.100Z,18.4
2019-04-16T11:59:25.543Z,16.6
2019-04-16T12:01:26.917Z,14.7
2019-04-16T12:03:28.378Z,15.5
2019-04-16T12:05:29.866Z,17.1
2019-04-16T12:07:31.266Z,16.4
2019-04-16T12:09:32.637Z,16.9
2019-04-16T12:11:34.082Z,18.7
2019-04-16T12:13:35.541Z,16.6
2019-04-16T12:15:36.982Z,17.4
2019-04-16T12:17:38.563Z,16.7
2019-04-16T12:19:39.974Z,15.3
2019-04-16T12:21:41.416Z,14.1
2019-04-16T12:23:42.894Z,15.1
2019-04-16T12:25:44.343Z,14.5
2019-04-16T12:27:45.789Z,18.2
2019-04-16T12:29:47.208Z,9
2019-04-16T12:31:48.650Z,14.7
2019-04-16T12:33:50.103Z,13
2019-04-16T12:35:51.570Z,17.5
2019-04-16T12:37:53.009Z,15.2
2019-04-16T12:39:54.541Z,14.4
2019-04-16T12:41:56.272Z,15.4
2019-04-16T12:44:01.595Z,14.8
2019-04-16T12:46:03.128Z,15.3
2019-04-16T12:48:04.566Z,15.7
2019-04-16T12:50:06.103Z,14.5
2019-04-16T12:52:07.605Z,14.8
2019-04-16T12:54:09.060Z,16.2
2019-04-16T12:56:10.502Z,17.4
2019-04-16T12:58:11.925Z,16.6
2019-04-16T13:00:13.354Z,14.8
2019-04-16T13:02:14.711Z,16.2
2019-04-16T13:04:16.262Z,16.8
2019-04-16T13:06:17.720Z,16
2019-04-16T13:08:19.162Z,14.2
2019-04-16T13:10:20.614Z,15.3
2019-04-16T13:12:22.066Z,16.6
2019-04-16T13:14:23.485Z,16.4
2019-04-16T13:16:24.885Z,15.4
2019-04-16T13:18:26.237Z,14.1
2019-04-16T13:20:29.468Z,16.8
2019-04-16T13:22:31.626Z,14.4
2019-04-16T13:24:33.073Z,14.3
2019-04-16T13:26:34.525Z,14.9
2019-04-16T13:28:35.902Z,13.8
2019-04-16T13:30:37.303Z,14.4
2019-04-16T13:32:38.697Z,14.5
2019-04-16T13:34:40.145Z,15
2019-04-16T13:36:41.600Z,14.7
2019-04-16T13:38:43.032Z,14.5
2019-04-16T13:40:44.321Z,13.9
2019-04-16T13:42:45.774Z,14.8
2019-04-16T13:44:47.220Z,15.7
2019-04-16T13:46:48.667Z,14
2019-04-16T13:48:50.065Z,14.2
2019-04-16T13:50:51.514Z,13.9
2019-04-16T13:52:54.915Z,13.9
2019-04-16T13:54:57.424Z,17.2
2019-04-16T13:56:58.818Z,15.8
2019-04-16T13:59:00.609Z,15.2
2019-04-16T14:01:02.228Z,15.5
2019-04-16T14:03:03.615Z,15.2
2019-04-16T14:05:05.410Z,14.8
2019-04-16T14:07:07.220Z,18.6
2019-04-16T14:09:08.672Z,15.9
2019-04-16T14:11:10.034Z,16.6
2019-04-16T14:13:13.185Z,16.1
2019-04-16T14:15:30.758Z,16.1
2019-04-16T14:17:35.096Z,16.6
2019-04-16T14:19:53.153Z,18.3
2019-04-16T14:21:54.590Z,16.1
2019-04-16T14:23:55.962Z,15.8
2019-04-16T14:25:57.414Z,16.9
2019-04-16T14:28:01.690Z,14.8
2019-04-16T14:30:09.911Z,16
2019-04-16T14:32:12.793Z,15.8
2019-04-16T14:34:14.182Z,16.1
2019-04-16T14:36:15.531Z,16.3
2019-04-16T14:38:16.989Z,16.3
2019-04-16T14:40:18.446Z,15.5
2019-04-16T14:42:22.204Z,17.3
2019-04-16T14:44:24.551Z,15.4
2019-04-16T14:46:28.393Z,17.5
2019-04-16T14:48:30.537Z,15.4
2019-04-16T14:50:33.109Z,15.1
2019-04-16T14:52:34.683Z,16.2
2019-04-16T14:54:36.054Z,14.5
2019-04-16T14:56:37.403Z,15.8
2019-04-16T14:58:38.763Z,14.9
2019-04-16T15:00:40.187Z,15.4
2019-04-16T15:02:41.624Z,14.6
2019-04-16T15:04:43.255Z,16.6
2019-04-16T15:06:53.485Z,14.9
2019-04-16T15:08:57.956Z,14.9
2019-04-16T15:21:22.130Z,13.2
2019-04-16T15:23:23.528Z,14.9
2019-04-16T15:25:24.906Z,13.1
2019-04-16T15:27:28.123Z,15.8
2019-04-16T15:29:33.828Z,14.2
2019-04-16T15:31:35.263Z,13.3
2019-04-16T15:33:38.794Z,11.9
2019-04-16T15:35:43.662Z,14.9
2019-04-16T15:37:47.985Z,14
2019-04-16T15:39:49.438Z,15.1
2019-04-16T15:41:50.911Z,14.4
2019-04-16T15:43:52.345Z,15
2019-04-16T15:45:53.800Z,12.5
2019-04-16T15:47:55.251Z,11.7
2019-04-16T15:49:57.101Z,13
2019-04-16T15:51:58.857Z,12.5
2019-04-16T15:54:00.316Z,13.9
2019-04-16T15:56:01.778Z,13.4
2019-04-16T15:58:04.530Z,14.5
2019-04-16T16:00:10.786Z,13.8
2019-04-16T16:02:12.208Z,14
2019-04-16T16:04:13.608Z,14.4
2019-04-16T16:06:16.740Z,15.5
2019-04-16T16:08:22.028Z,13.4
2019-04-16T16:10:23.480Z,14.9
2019-04-16T16:12:24.842Z,16.2
2019-04-16T16:14:26.288Z,15.2
2019-04-16T16:16:40.795Z,13.8
2019-04-16T16:18:43.744Z,14.4
2019-04-16T16:20:45.197Z,12.6
2019-04-16T16:22:46.612Z,15
2019-04-16T16:24:47.966Z,12.9
2019-04-16T16:26:49.335Z,13.3
2019-04-16T16:28:50.791Z,13.5
2019-04-16T16:30:52.241Z,12.5
2019-04-16T16:32:53.684Z,12
2019-04-16T16:34:55.524Z,13.7
2019-04-16T16:36:56.919Z,14.2
2019-04-16T16:38:58.330Z,13.8
2019-04-16T16:40:59.684Z,14
2019-04-16T16:43:01.723Z,13.7
2019-04-16T16:45:09.301Z,13.8
2019-04-16T16:47:10.685Z,12.3
2019-04-16T16:49:12.140Z,12.6
2019-04-16T16:51:14.630Z,12.8
2019-04-16T16:53:17.035Z,10.7
2019-04-16T16:55:18.486Z,12
2019-04-16T16:57:19.760Z,13
2019-04-16T16:59:21.212Z,12.4
2019-04-16T17:01:22.570Z,14.7
2019-04-16T17:03:24.026Z,15.2
2019-04-16T17:05:25.475Z,12.4
2019-04-16T17:07:26.828Z,10.8
2019-04-16T17:09:30.169Z,11.7
2019-04-16T17:11:32.694Z,12.6
2019-04-16T17:13:34.143Z,14.6
2019-04-16T17:15:35.592Z,14.2
2019-04-16T17:17:36.975Z,13.5
2019-04-16T17:19:38.328Z,12.4
2019-04-16T17:21:39.688Z,11.7
2019-04-16T17:23:41.137Z,11.8
2019-04-16T17:25:42.599Z,11.5
2019-04-16T17:27:50.902Z,10.7
2019-04-16T17:29:53.585Z,11.3
2019-04-16T17:31:55.662Z,11.1
2019-04-16T17:33:57.009Z,11.2
2019-04-16T17:35:58.458Z,11.4
2019-04-16T17:38:02.688Z,12.5
2019-04-16T17:40:05.250Z,10.3
2019-04-16T17:42:06.658Z,11.8
2019-04-16T17:44:08.009Z,11.1
2019-04-16T17:46:09.459Z,9.1
2019-04-16T17:48:10.909Z,8.6
2019-04-16T17:50:12.362Z,11.4
2019-04-16T17:52:13.754Z,8.3
2019-04-16T17:54:15.100Z,9
2019-04-16T17:56:16.547Z,8.7
2019-04-16T17:58:18.084Z,8
2019-04-16T18:00:19.434Z,8.6
2019-04-16T18:02:20.858Z,8
2019-04-16T18:04:22.223Z,10.3
2019-04-16T18:06:23.675Z,9.8
2019-04-16T18:08:25.122Z,12.7
2019-04-16T18:10:26.945Z,11.6
2019-04-16T18:12:28.526Z,12.4
2019-04-16T18:14:29.896Z,13.7
2019-04-16T18:16:31.394Z,14.8
2019-04-16T18:18:36.375Z,14.3
2019-04-16T18:20:38.059Z,14.2
2019-04-16T18:22:41.853Z,17.4
2019-04-16T18:24:47.013Z,21
2019-04-16T18:26:48.462Z,19.7
2019-04-16T18:28:49.911Z,18
2019-04-16T18:30:51.356Z,18.9
2019-04-16T18:32:52.800Z,21.3
2019-04-16T18:34:54.241Z,15.8
2019-04-16T18:36:55.552Z,20
2019-04-16T18:39:03.122Z,17.2
2019-04-16T18:41:06.772Z,18.9
2019-04-16T18:43:08.221Z,22.8
2019-04-16T18:45:09.661Z,21.6
2019-04-16T18:47:11.159Z,17.5
2019-04-16T18:49:14.191Z,18.1
2019-04-16T18:51:18.804Z,17
2019-04-16T18:53:20.250Z,21.7
2019-04-16T18:55:21.498Z,14.9
2019-04-16T18:57:22.916Z,15.9
2019-04-16T18:59:24.354Z,14.2
2019-04-16T19:01:25.802Z,20.1
2019-04-16T19:03:27.244Z,21.5
2019-04-16T19:05:28.682Z,17.6
2019-04-16T19:07:30.107Z,17
2019-04-16T19:09:31.554Z,14.5
2019-04-16T19:11:32.955Z,14.3
2019-04-16T19:13:34.397Z,15.5
2019-04-16T19:15:35.842Z,14.2
2019-04-16T19:17:37.283Z,15.8
2019-04-16T19:19:38.829Z,16.1
2019-04-16T19:21:50.928Z,14.7
2019-04-16T19:23:53.718Z,14.4
2019-04-16T19:25:56.093Z,16.6
2019-04-16T19:27:58.616Z,18.9
2019-04-16T19:30:00.029Z,17.8
2019-04-16T19:32:01.472Z,17.7
2019-04-16T19:34:05.637Z,18.3
2019-04-16T19:36:11.705Z,17
2019-04-16T19:38:13.146Z,17.6
2019-04-16T19:40:15.553Z,15.2
2019-04-16T19:42:20.860Z,24.9
2019-04-16T19:44:22.242Z,16.1
2019-04-16T19:46:23.680Z,16.2
2019-04-16T19:48:35.039Z,16.7
2019-04-16T19:50:37.719Z,16.2
2019-04-16T19:52:39.165Z,16.7
2019-04-16T19:54:40.539Z,18.3
2019-04-16T19:56:41.975Z,14.9
2019-04-16T19:58:44.176Z,17.7
2019-04-16T20:00:49.363Z,16.9
2019-04-16T20:02:50.897Z,13.2
2019-04-16T20:04:52.341Z,15.5
2019-04-16T20:06:56.964Z,14.8
2019-04-16T20:09:02.744Z,13.5
2019-04-16T20:11:04.162Z,13.4
2019-04-16T20:13:05.502Z,15.4
2019-04-16T20:15:09.337Z,15.3
2019-04-16T20:17:11.184Z,15.6
2019-04-16T20:19:12.618Z,13.1
2019-04-16T20:21:13.952Z,18.2
2019-04-16T20:23:15.390Z,17.6
2019-04-16T20:25:16.728Z,16.1
2019-04-16T20:27:19.645Z,16.1
2019-04-16T20:29:21.208Z,15.4
2019-04-16T20:31:22.597Z,14.4
2019-04-16T20:33:24.033Z,17.6
2019-04-16T20:35:25.472Z,15.3
2019-04-16T20:37:26.813Z,17.5
2019-04-16T20:39:28.151Z,15.5
2019-04-16T20:41:29.586Z,15.1
2019-04-16T20:43:30.927Z,13.3
2019-04-16T20:45:32.363Z,16.1
2019-04-16T20:47:38.446Z,13.9
2019-04-16T20:49:41.444Z,14.3
2019-04-16T20:51:42.779Z,16.8
2019-04-16T20:53:44.220Z,14.9
2019-04-16T20:55:47.375Z,15.1
2019-04-16T20:57:49.595Z,18.2
2019-04-16T20:59:51.027Z,16.5
2019-04-16T21:01:52.358Z,19.1
2019-04-16T21:03:53.787Z,20.9
2019-04-16T21:05:58.235Z,19.2
2019-04-16T21:08:01.478Z,19.1
2019-04-16T21:10:03.490Z,17.5
2019-04-16T21:12:06.450Z,18.9
2019-04-16T21:14:07.823Z,15.1
2019-04-16T21:16:09.222Z,17.9
2019-04-16T21:18:11.980Z,16.2
2019-04-16T21:20:13.604Z,17.1
2019-04-16T21:22:15.036Z,19.2
2019-04-16T21:24:16.374Z,17.2
2019-04-16T21:26:19.916Z,17.8
2019-04-16T21:28:21.642Z,16.7
2019-04-16T21:30:22.976Z,18.7
2019-04-16T21:32:24.312Z,18.2
2019-04-16T21:34:29.372Z,18.8
2019-04-16T21:36:33.779Z,17.9
2019-04-16T21:38:39.125Z,18.3
2019-04-16T21:40:40.558Z,18.9
2019-04-16T21:42:41.835Z,17.8
2019-04-16T21:44:44.583Z,18.2
2019-04-16T21:46:51.774Z,18.5
2019-04-16T21:48:55.625Z,18.7
2019-04-16T21:51:02.330Z,19.2
2019-04-16T21:53:03.754Z,19.4
2019-04-16T21:55:05.252Z,19.2
2019-04-16T21:57:08.817Z,20.1
2019-04-16T21:59:14.834Z,20.8
2019-04-16T22:01:16.264Z,20.1
2019-04-16T22:03:17.600Z,18.6
2019-04-16T22:05:19.035Z,19.2
2019-04-16T22:07:24.169Z,18.8
2019-04-16T22:09:26.909Z,20.1
2019-04-16T22:11:28.339Z,21.4
2019-04-16T22:13:29.668Z,20.9
2019-04-16T22:15:30.914Z,20.2
2019-04-16T22:17:35.358Z,21
2019-04-16T22:19:52.871Z,21.5
2019-04-16T22:22:01.547Z,20.4
2019-04-16T22:24:02.906Z,23
2019-04-16T22:26:04.340Z,20.1
2019-04-16T22:28:11.306Z,20.1
2019-04-16T22:30:19.067Z,22.3
2019-04-16T22:32:21.546Z,19.4
2019-04-16T22:34:22.979Z,21.2
2019-04-16T22:36:24.377Z,22.9
2019-04-16T22:38:25.789Z,19.3
2019-04-16T22:40:27.118Z,22.6
2019-04-16T22:42:29.578Z,20.7
2019-04-16T22:44:32.100Z,19.5
2019-04-16T22:46:33.530Z,22.6
2019-04-16T22:48:34.902Z,25.9
2019-04-16T22:50:37.968Z,24.2
2019-04-16T22:52:41.578Z,23
2019-04-16T22:54:51.921Z,22.3
2019-04-16T22:56:57.457Z,23.3
2019-04-16T22:59:06.513Z,25.9
2019-04-16T23:01:09.805Z,24.9
2019-04-16T23:03:11.245Z,21
2019-04-16T23:05:12.668Z,22.6
2019-04-16T23:07:14.041Z,24.6
2019-04-16T23:09:16.993Z,22.3
2019-04-16T23:11:23.088Z,21.5
2019-04-16T23:13:25.846Z,20.2
2019-04-16T23:15:27.273Z,22.9
2019-04-16T23:17:28.704Z,23.1
2019-04-16T23:21:31.596Z,20.8
2019-04-16T23:23:33.005Z,20.4
2019-04-16T23:25:34.339Z,21.1
2019-04-16T23:27:37.392Z,21.3
2019-04-16T23:29:39.612Z,21.6
2019-04-16T23:31:41.037Z,22.1
2019-04-16T23:33:42.458Z,21.6
2019-04-16T23:35:44.620Z,23.1
2019-04-16T23:37:46.116Z,22.8
2019-04-16T23:39:47.463Z,21.8
2019-04-16T23:41:49.000Z,22.7
2019-04-16T23:43:50.504Z,23.6
2019-04-16T23:45:54.950Z,21.8
2019-04-16T23:47:56.376Z,20.4
2019-04-16T23:49:58.360Z,20.6
2019-04-16T23:52:02.956Z,21.4
2019-04-16T23:54:07.877Z,21.8
2019-04-16T23:56:13.421Z,23.2
2019-04-16T23:58:14.848Z,22.2
